sensor_id;sensor_type;location;lat;lon;timestamp;P1;durP1;ratioP1;P2;durP2;ratioP2
9496;SDS011;4786;51.270;4.456;2024-03-02T00:00:06;2.30;;;1.30;;
9496;SDS011;4786;51.270;4.456;2024-03-02T00:02:41;4.77;;;1.63;;
9496;SDS011;4786;51.270;4.456;2024-03-02T00:05:11;5.57;;;2.40;;
9496;SDS011;4786;51.270;4.456;2024-03-02T00:07:41;2.17;;;1.20;;
9496;SDS011;4786;51.270;4.456;2024-03-02T00:10:10;11.17;;;3.17;;
9496;SDS011;4786;51.270;4.456;2024-03-02T00:12:39;9.80;;;3.07;;
9496;SDS011;4786;51.270;4.456;2024-03-02T00:15:06;3.80;;;1.30;;
9496;SDS011;4786;51.270;4.456;2024-03-02T00:17:53;3.87;;;1.97;;
9496;SDS011;4786;51.270;4.456;2024-03-02T00:20:20;2.23;;;1.43;;
9496;SDS011;4786;51.270;4.456;2024-03-02T00:22:48;2.50;;;1.10;;
9496;SDS011;4786;51.270;4.456;2024-03-02T00:25:24;1.53;;;1.00;;
9496;SDS011;4786;51.270;4.456;2024-03-02T00:27:49;2.03;;;1.10;;
9496;SDS011;4786;51.270;4.456;2024-03-02T00:33:08;1.30;;;0.90;;
9496;SDS011;4786;51.270;4.456;2024-03-02T00:35:35;0.90;;;0.90;;
9496;SDS011;4786;51.270;4.456;2024-03-02T00:38:04;1.20;;;1.10;;
9496;SDS011;4786;51.270;4.456;2024-03-02T00:40:31;1.30;;;1.00;;
9496;SDS011;4786;51.270;4.456;2024-03-02T00:42:57;2.50;;;1.00;;
9496;SDS011;4786;51.270;4.456;2024-03-02T00:45:25;1.57;;;1.03;;
9496;SDS011;4786;51.270;4.456;2024-03-02T00:47:51;1.50;;;1.10;;
9496;SDS011;4786;51.270;4.456;2024-03-02T00:50:17;1.57;;;1.10;;
9496;SDS011;4786;51.270;4.456;2024-03-02T00:52:43;2.10;;;1.17;;
9496;SDS011;4786;51.270;4.456;2024-03-02T00:55:10;1.73;;;1.10;;
9496;SDS011;4786;51.270;4.456;2024-03-02T00:57:35;1.30;;;1.10;;
9496;SDS011;4786;51.270;4.456;2024-03-02T01:00:01;1.60;;;1.10;;
9496;SDS011;4786;51.270;4.456;2024-03-02T01:02:28;1.70;;;1.00;;
9496;SDS011;4786;51.270;4.456;2024-03-02T01:04:54;1.20;;;1.10;;
9496;SDS011;4786;51.270;4.456;2024-03-02T01:07:20;2.80;;;1.10;;
9496;SDS011;4786;51.270;4.456;2024-03-02T01:09:46;0.93;;;0.90;;
9496;SDS011;4786;51.270;4.456;2024-03-02T01:12:12;1.37;;;1.10;;
9496;SDS011;4786;51.270;4.456;2024-03-02T01:14:38;1.80;;;1.03;;
9496;SDS011;4786;51.270;4.456;2024-03-02T01:17:05;2.50;;;1.10;;
9496;SDS011;4786;51.270;4.456;2024-03-02T01:19:30;1.70;;;1.10;;
9496;SDS011;4786;51.270;4.456;2024-03-02T01:21:57;2.57;;;1.40;;
9496;SDS011;4786;51.270;4.456;2024-03-02T01:24:22;1.90;;;1.20;;
9496;SDS011;4786;51.270;4.456;2024-03-02T01:26:48;12.23;;;3.70;;
9496;SDS011;4786;51.270;4.456;2024-03-02T01:29:14;6.87;;;2.63;;
9496;SDS011;4786;51.270;4.456;2024-03-02T01:31:40;5.10;;;1.90;;
9496;SDS011;4786;51.270;4.456;2024-03-02T01:34:07;5.33;;;2.17;;
9496;SDS011;4786;51.270;4.456;2024-03-02T01:36:33;2.00;;;1.50;;
9496;SDS011;4786;51.270;4.456;2024-03-02T01:38:59;8.30;;;2.57;;
9496;SDS011;4786;51.270;4.456;2024-03-02T01:41:26;3.03;;;1.70;;
9496;SDS011;4786;51.270;4.456;2024-03-02T01:43:52;3.17;;;1.50;;
9496;SDS011;4786;51.270;4.456;2024-03-02T01:46:17;1.20;;;1.10;;
9496;SDS011;4786;51.270;4.456;2024-03-02T01:48:44;2.90;;;1.40;;
9496;SDS011;4786;51.270;4.456;2024-03-02T01:51:10;1.63;;;1.40;;
9496;SDS011;4786;51.270;4.456;2024-03-02T01:53:36;1.90;;;1.23;;
9496;SDS011;4786;51.270;4.456;2024-03-02T01:56:02;2.97;;;1.27;;
9496;SDS011;4786;51.270;4.456;2024-03-02T01:58:28;1.33;;;1.00;;
9496;SDS011;4786;51.270;4.456;2024-03-02T02:00:54;3.13;;;1.30;;
9496;SDS011;4786;51.270;4.456;2024-03-02T02:03:20;2.20;;;1.20;;
9496;SDS011;4786;51.270;4.456;2024-03-02T02:05:46;2.50;;;1.10;;
9496;SDS011;4786;51.270;4.456;2024-03-02T02:08:13;3.20;;;1.20;;
9496;SDS011;4786;51.270;4.456;2024-03-02T02:10:38;2.27;;;1.20;;
9496;SDS011;4786;51.270;4.456;2024-03-02T02:13:04;1.30;;;1.10;;
9496;SDS011;4786;51.270;4.456;2024-03-02T02:15:31;1.20;;;0.90;;
9496;SDS011;4786;51.270;4.456;2024-03-02T02:17:57;2.13;;;1.20;;
9496;SDS011;4786;51.270;4.456;2024-03-02T02:20:24;1.17;;;1.00;;
9496;SDS011;4786;51.270;4.456;2024-03-02T02:22:54;1.20;;;1.10;;
9496;SDS011;4786;51.270;4.456;2024-03-02T02:25:21;1.47;;;1.30;;
9496;SDS011;4786;51.270;4.456;2024-03-02T02:27:47;1.37;;;1.03;;
9496;SDS011;4786;51.270;4.456;2024-03-02T02:30:12;1.10;;;0.93;;
9496;SDS011;4786;51.270;4.456;2024-03-02T02:32:39;1.10;;;1.00;;
9496;SDS011;4786;51.270;4.456;2024-03-02T02:35:04;1.67;;;1.00;;
9496;SDS011;4786;51.270;4.456;2024-03-02T02:37:31;1.60;;;1.17;;
9496;SDS011;4786;51.270;4.456;2024-03-02T02:39:57;2.80;;;1.20;;
9496;SDS011;4786;51.270;4.456;2024-03-02T02:42:23;2.00;;;1.30;;
9496;SDS011;4786;51.270;4.456;2024-03-02T02:44:49;2.90;;;1.27;;
9496;SDS011;4786;51.270;4.456;2024-03-02T02:47:15;3.33;;;1.50;;
9496;SDS011;4786;51.270;4.456;2024-03-02T02:49:41;8.63;;;2.77;;
9496;SDS011;4786;51.270;4.456;2024-03-02T02:52:07;2.87;;;1.77;;
9496;SDS011;4786;51.270;4.456;2024-03-02T02:54:33;14.27;;;3.87;;
9496;SDS011;4786;51.270;4.456;2024-03-02T02:56:59;6.73;;;2.13;;
9496;SDS011;4786;51.270;4.456;2024-03-02T02:59:25;3.73;;;1.87;;
9496;SDS011;4786;51.270;4.456;2024-03-02T03:01:51;3.73;;;1.30;;
9496;SDS011;4786;51.270;4.456;2024-03-02T03:04:17;1.67;;;1.20;;
9496;SDS011;4786;51.270;4.456;2024-03-02T03:06:43;1.87;;;1.30;;
9496;SDS011;4786;51.270;4.456;2024-03-02T03:09:09;5.10;;;2.20;;
9496;SDS011;4786;51.270;4.456;2024-03-02T03:11:36;14.70;;;3.23;;
9496;SDS011;4786;51.270;4.456;2024-03-02T03:14:02;9.87;;;3.17;;
9496;SDS011;4786;51.270;4.456;2024-03-02T03:16:30;5.03;;;2.17;;
9496;SDS011;4786;51.270;4.456;2024-03-02T03:18:55;5.50;;;1.70;;
9496;SDS011;4786;51.270;4.456;2024-03-02T03:21:21;2.10;;;1.20;;
9496;SDS011;4786;51.270;4.456;2024-03-02T03:23:47;2.07;;;1.20;;
9496;SDS011;4786;51.270;4.456;2024-03-02T03:26:13;2.20;;;1.20;;
9496;SDS011;4786;51.270;4.456;2024-03-02T03:28:39;8.37;;;2.10;;
9496;SDS011;4786;51.270;4.456;2024-03-02T03:31:05;7.83;;;2.00;;
9496;SDS011;4786;51.270;4.456;2024-03-02T03:33:31;10.17;;;2.73;;
9496;SDS011;4786;51.270;4.456;2024-03-02T03:35:57;5.87;;;2.20;;
9496;SDS011;4786;51.270;4.456;2024-03-02T03:38:23;5.57;;;2.07;;
9496;SDS011;4786;51.270;4.456;2024-03-02T03:40:49;8.97;;;2.80;;
9496;SDS011;4786;51.270;4.456;2024-03-02T03:43:14;4.83;;;2.20;;
9496;SDS011;4786;51.270;4.456;2024-03-02T03:45:40;7.40;;;3.00;;
9496;SDS011;4786;51.270;4.456;2024-03-02T03:48:06;4.33;;;1.43;;
9496;SDS011;4786;51.270;4.456;2024-03-02T03:50:32;1.20;;;1.10;;
9496;SDS011;4786;51.270;4.456;2024-03-02T03:52:58;2.43;;;1.30;;
9496;SDS011;4786;51.270;4.456;2024-03-02T03:55:24;6.73;;;1.57;;
9496;SDS011;4786;51.270;4.456;2024-03-02T03:57:50;4.23;;;2.17;;
9496;SDS011;4786;51.270;4.456;2024-03-02T04:00:16;4.07;;;1.33;;
9496;SDS011;4786;51.270;4.456;2024-03-02T04:02:43;4.13;;;1.63;;
9496;SDS011;4786;51.270;4.456;2024-03-02T04:05:09;4.27;;;1.50;;
9496;SDS011;4786;51.270;4.456;2024-03-02T04:07:38;4.63;;;1.30;;
9496;SDS011;4786;51.270;4.456;2024-03-02T04:10:06;3.13;;;1.30;;
9496;SDS011;4786;51.270;4.456;2024-03-02T04:12:33;5.30;;;1.50;;
9496;SDS011;4786;51.270;4.456;2024-03-02T04:15:00;3.43;;;1.40;;
9496;SDS011;4786;51.270;4.456;2024-03-02T04:17:27;4.13;;;1.47;;
9496;SDS011;4786;51.270;4.456;2024-03-02T04:19:52;3.27;;;1.50;;
9496;SDS011;4786;51.270;4.456;2024-03-02T04:22:18;1.83;;;1.10;;
9496;SDS011;4786;51.270;4.456;2024-03-02T04:24:44;1.23;;;1.00;;
9496;SDS011;4786;51.270;4.456;2024-03-02T04:27:11;2.33;;;1.10;;
9496;SDS011;4786;51.270;4.456;2024-03-02T04:29:36;1.60;;;1.20;;
9496;SDS011;4786;51.270;4.456;2024-03-02T04:32:02;3.63;;;1.30;;
9496;SDS011;4786;51.270;4.456;2024-03-02T04:34:27;3.87;;;1.57;;
9496;SDS011;4786;51.270;4.456;2024-03-02T04:36:53;2.43;;;1.30;;
9496;SDS011;4786;51.270;4.456;2024-03-02T04:39:19;3.33;;;1.17;;
9496;SDS011;4786;51.270;4.456;2024-03-02T04:41:45;2.87;;;0.90;;
9496;SDS011;4786;51.270;4.456;2024-03-02T04:44:11;2.50;;;1.30;;
9496;SDS011;4786;51.270;4.456;2024-03-02T04:46:37;5.33;;;1.53;;
9496;SDS011;4786;51.270;4.456;2024-03-02T04:49:03;3.60;;;1.70;;
9496;SDS011;4786;51.270;4.456;2024-03-02T04:51:30;2.00;;;1.20;;
9496;SDS011;4786;51.270;4.456;2024-03-02T04:53:56;3.13;;;1.30;;
9496;SDS011;4786;51.270;4.456;2024-03-02T04:56:22;2.63;;;1.10;;
9496;SDS011;4786;51.270;4.456;2024-03-02T04:58:47;2.50;;;1.30;;
9496;SDS011;4786;51.270;4.456;2024-03-02T05:01:13;1.97;;;1.10;;
9496;SDS011;4786;51.270;4.456;2024-03-02T05:03:39;6.23;;;1.37;;
9496;SDS011;4786;51.270;4.456;2024-03-02T05:06:05;3.17;;;1.30;;
9496;SDS011;4786;51.270;4.456;2024-03-02T05:08:31;5.57;;;1.67;;
9496;SDS011;4786;51.270;4.456;2024-03-02T05:10:59;1.80;;;1.00;;
9496;SDS011;4786;51.270;4.456;2024-03-02T05:13:44;3.23;;;1.13;;
9496;SDS011;4786;51.270;4.456;2024-03-02T05:16:10;2.03;;;1.03;;
9496;SDS011;4786;51.270;4.456;2024-03-02T05:18:37;1.90;;;1.00;;
9496;SDS011;4786;51.270;4.456;2024-03-02T05:21:03;4.67;;;1.10;;
9496;SDS011;4786;51.270;4.456;2024-03-02T05:23:29;3.50;;;1.23;;
9496;SDS011;4786;51.270;4.456;2024-03-02T05:25:55;1.93;;;1.30;;
9496;SDS011;4786;51.270;4.456;2024-03-02T05:28:22;2.13;;;1.10;;
9496;SDS011;4786;51.270;4.456;2024-03-02T05:30:48;2.93;;;1.10;;
9496;SDS011;4786;51.270;4.456;2024-03-02T05:33:14;2.70;;;1.30;;
9496;SDS011;4786;51.270;4.456;2024-03-02T05:35:40;1.43;;;1.07;;
9496;SDS011;4786;51.270;4.456;2024-03-02T05:38:06;5.60;;;1.50;;
9496;SDS011;4786;51.270;4.456;2024-03-02T05:40:32;3.80;;;1.57;;
9496;SDS011;4786;51.270;4.456;2024-03-02T05:42:59;2.97;;;1.40;;
9496;SDS011;4786;51.270;4.456;2024-03-02T05:45:25;3.70;;;1.57;;
9496;SDS011;4786;51.270;4.456;2024-03-02T05:47:51;4.83;;;1.63;;
9496;SDS011;4786;51.270;4.456;2024-03-02T05:50:16;9.27;;;1.60;;
9496;SDS011;4786;51.270;4.456;2024-03-02T05:52:45;3.93;;;1.70;;
9496;SDS011;4786;51.270;4.456;2024-03-02T05:55:12;2.73;;;1.27;;
9496;SDS011;4786;51.270;4.456;2024-03-02T05:57:38;3.67;;;1.60;;
9496;SDS011;4786;51.270;4.456;2024-03-02T06:00:27;2.53;;;1.50;;
9496;SDS011;4786;51.270;4.456;2024-03-02T06:02:53;2.50;;;1.40;;
9496;SDS011;4786;51.270;4.456;2024-03-02T06:05:19;3.17;;;1.17;;
9496;SDS011;4786;51.270;4.456;2024-03-02T06:07:45;3.40;;;1.17;;
9496;SDS011;4786;51.270;4.456;2024-03-02T06:10:11;3.57;;;1.43;;
9496;SDS011;4786;51.270;4.456;2024-03-02T06:12:37;4.13;;;1.70;;
9496;SDS011;4786;51.270;4.456;2024-03-02T06:15:03;3.87;;;1.90;;
9496;SDS011;4786;51.270;4.456;2024-03-02T06:17:29;3.27;;;1.60;;
9496;SDS011;4786;51.270;4.456;2024-03-02T06:19:55;4.13;;;1.70;;
9496;SDS011;4786;51.270;4.456;2024-03-02T06:22:21;5.00;;;2.13;;
9496;SDS011;4786;51.270;4.456;2024-03-02T06:24:49;6.00;;;2.50;;
9496;SDS011;4786;51.270;4.456;2024-03-02T06:27:15;4.20;;;2.20;;
9496;SDS011;4786;51.270;4.456;2024-03-02T06:29:42;4.40;;;2.30;;
9496;SDS011;4786;51.270;4.456;2024-03-02T06:32:08;7.17;;;2.30;;
9496;SDS011;4786;51.270;4.456;2024-03-02T06:34:33;6.83;;;2.03;;
9496;SDS011;4786;51.270;4.456;2024-03-02T06:36:59;5.90;;;2.10;;
9496;SDS011;4786;51.270;4.456;2024-03-02T06:39:25;7.17;;;1.90;;
9496;SDS011;4786;51.270;4.456;2024-03-02T06:41:51;2.67;;;1.73;;
9496;SDS011;4786;51.270;4.456;2024-03-02T06:44:17;4.13;;;2.00;;
9496;SDS011;4786;51.270;4.456;2024-03-02T06:46:42;3.90;;;1.67;;
9496;SDS011;4786;51.270;4.456;2024-03-02T06:49:08;2.83;;;1.50;;
9496;SDS011;4786;51.270;4.456;2024-03-02T06:51:35;3.13;;;1.70;;
9496;SDS011;4786;51.270;4.456;2024-03-02T06:54:01;2.97;;;1.50;;
9496;SDS011;4786;51.270;4.456;2024-03-02T06:56:27;6.93;;;1.80;;
9496;SDS011;4786;51.270;4.456;2024-03-02T06:58:52;2.93;;;1.50;;
9496;SDS011;4786;51.270;4.456;2024-03-02T07:01:18;2.67;;;1.60;;
9496;SDS011;4786;51.270;4.456;2024-03-02T07:03:45;6.60;;;2.03;;
9496;SDS011;4786;51.270;4.456;2024-03-02T07:06:11;3.27;;;1.60;;
9496;SDS011;4786;51.270;4.456;2024-03-02T07:08:37;5.33;;;1.60;;
9496;SDS011;4786;51.270;4.456;2024-03-02T07:11:03;3.60;;;1.73;;
9496;SDS011;4786;51.270;4.456;2024-03-02T07:13:29;3.87;;;1.80;;
9496;SDS011;4786;51.270;4.456;2024-03-02T07:15:55;6.13;;;2.00;;
9496;SDS011;4786;51.270;4.456;2024-03-02T07:18:39;3.80;;;1.60;;
9496;SDS011;4786;51.270;4.456;2024-03-02T07:21:16;6.57;;;1.77;;
9496;SDS011;4786;51.270;4.456;2024-03-02T07:23:42;4.53;;;1.80;;
9496;SDS011;4786;51.270;4.456;2024-03-02T07:26:08;4.60;;;1.67;;
9496;SDS011;4786;51.270;4.456;2024-03-02T07:28:34;3.77;;;1.70;;
9496;SDS011;4786;51.270;4.456;2024-03-02T07:31:00;2.40;;;1.43;;
9496;SDS011;4786;51.270;4.456;2024-03-02T07:33:27;3.57;;;1.60;;
9496;SDS011;4786;51.270;4.456;2024-03-02T07:35:53;4.70;;;1.60;;
9496;SDS011;4786;51.270;4.456;2024-03-02T07:38:20;2.73;;;1.70;;
9496;SDS011;4786;51.270;4.456;2024-03-02T07:40:47;3.47;;;1.63;;
9496;SDS011;4786;51.270;4.456;2024-03-02T07:43:17;5.83;;;1.73;;
9496;SDS011;4786;51.270;4.456;2024-03-02T07:45:44;5.33;;;1.90;;
9496;SDS011;4786;51.270;4.456;2024-03-02T07:48:10;5.07;;;1.80;;
9496;SDS011;4786;51.270;4.456;2024-03-02T07:50:35;3.57;;;1.80;;
9496;SDS011;4786;51.270;4.456;2024-03-02T07:53:03;4.90;;;1.87;;
9496;SDS011;4786;51.270;4.456;2024-03-02T07:55:34;6.37;;;2.07;;
9496;SDS011;4786;51.270;4.456;2024-03-02T07:58:00;4.73;;;2.07;;
9496;SDS011;4786;51.270;4.456;2024-03-02T08:00:26;3.23;;;2.00;;
9496;SDS011;4786;51.270;4.456;2024-03-02T08:02:53;4.80;;;2.17;;
9496;SDS011;4786;51.270;4.456;2024-03-02T08:05:19;4.90;;;2.00;;
9496;SDS011;4786;51.270;4.456;2024-03-02T08:07:45;5.87;;;2.13;;
9496;SDS011;4786;51.270;4.456;2024-03-02T08:10:12;5.13;;;1.90;;
9496;SDS011;4786;51.270;4.456;2024-03-02T08:12:38;3.73;;;1.80;;
9496;SDS011;4786;51.270;4.456;2024-03-02T08:15:04;4.47;;;1.70;;
9496;SDS011;4786;51.270;4.456;2024-03-02T08:17:31;4.40;;;1.90;;
9496;SDS011;4786;51.270;4.456;2024-03-02T08:19:58;4.93;;;1.77;;
9496;SDS011;4786;51.270;4.456;2024-03-02T08:22:24;6.07;;;1.70;;
9496;SDS011;4786;51.270;4.456;2024-03-02T08:24:50;4.00;;;1.70;;
9496;SDS011;4786;51.270;4.456;2024-03-02T08:27:17;3.87;;;2.30;;
9496;SDS011;4786;51.270;4.456;2024-03-02T08:29:43;5.33;;;3.00;;
9496;SDS011;4786;51.270;4.456;2024-03-02T08:32:08;4.70;;;2.43;;
9496;SDS011;4786;51.270;4.456;2024-03-02T08:34:34;8.43;;;4.70;;
9496;SDS011;4786;51.270;4.456;2024-03-02T08:37:00;7.97;;;2.70;;
9496;SDS011;4786;51.270;4.456;2024-03-02T08:39:27;7.20;;;4.20;;
9496;SDS011;4786;51.270;4.456;2024-03-02T08:41:53;5.10;;;2.90;;
9496;SDS011;4786;51.270;4.456;2024-03-02T08:44:19;6.97;;;2.57;;
9496;SDS011;4786;51.270;4.456;2024-03-02T08:46:45;4.50;;;1.90;;
9496;SDS011;4786;51.270;4.456;2024-03-02T08:49:11;4.17;;;1.77;;
9496;SDS011;4786;51.270;4.456;2024-03-02T08:51:38;4.87;;;2.00;;
9496;SDS011;4786;51.270;4.456;2024-03-02T08:54:04;4.60;;;2.17;;
9496;SDS011;4786;51.270;4.456;2024-03-02T08:56:30;7.87;;;3.03;;
9496;SDS011;4786;51.270;4.456;2024-03-02T08:58:57;4.50;;;1.80;;
9496;SDS011;4786;51.270;4.456;2024-03-02T09:01:23;14.37;;;3.70;;
9496;SDS011;4786;51.270;4.456;2024-03-02T09:03:49;4.73;;;2.67;;
9496;SDS011;4786;51.270;4.456;2024-03-02T09:06:15;4.90;;;2.40;;
9496;SDS011;4786;51.270;4.456;2024-03-02T09:08:45;6.43;;;2.50;;
9496;SDS011;4786;51.270;4.456;2024-03-02T09:11:17;6.57;;;2.33;;
9496;SDS011;4786;51.270;4.456;2024-03-02T09:13:43;5.70;;;1.97;;
9496;SDS011;4786;51.270;4.456;2024-03-02T09:16:09;6.83;;;2.17;;
9496;SDS011;4786;51.270;4.456;2024-03-02T09:18:36;7.20;;;2.10;;
9496;SDS011;4786;51.270;4.456;2024-03-02T09:21:02;3.47;;;1.60;;
9496;SDS011;4786;51.270;4.456;2024-03-02T09:23:28;10.17;;;2.30;;
9496;SDS011;4786;51.270;4.456;2024-03-02T09:25:54;5.60;;;1.50;;
9496;SDS011;4786;51.270;4.456;2024-03-02T09:28:20;5.40;;;2.00;;
9496;SDS011;4786;51.270;4.456;2024-03-02T09:30:45;5.07;;;1.80;;
9496;SDS011;4786;51.270;4.456;2024-03-02T09:33:12;5.27;;;1.73;;
9496;SDS011;4786;51.270;4.456;2024-03-02T09:35:38;5.87;;;1.70;;
9496;SDS011;4786;51.270;4.456;2024-03-02T09:38:04;9.63;;;1.70;;
9496;SDS011;4786;51.270;4.456;2024-03-02T09:40:31;7.03;;;1.73;;
9496;SDS011;4786;51.270;4.456;2024-03-02T09:42:57;6.17;;;1.83;;
9496;SDS011;4786;51.270;4.456;2024-03-02T09:45:24;6.47;;;1.80;;
9496;SDS011;4786;51.270;4.456;2024-03-02T09:47:51;5.57;;;1.70;;
9496;SDS011;4786;51.270;4.456;2024-03-02T09:50:17;7.97;;;2.00;;
9496;SDS011;4786;51.270;4.456;2024-03-02T09:52:42;8.60;;;2.00;;
9496;SDS011;4786;51.270;4.456;2024-03-02T09:55:08;3.93;;;1.60;;
9496;SDS011;4786;51.270;4.456;2024-03-02T09:57:35;6.77;;;2.07;;
9496;SDS011;4786;51.270;4.456;2024-03-02T10:00:00;3.70;;;1.60;;
9496;SDS011;4786;51.270;4.456;2024-03-02T10:02:27;6.33;;;1.67;;
9496;SDS011;4786;51.270;4.456;2024-03-02T10:04:53;4.93;;;1.73;;
9496;SDS011;4786;51.270;4.456;2024-03-02T10:07:18;5.03;;;1.90;;
9496;SDS011;4786;51.270;4.456;2024-03-02T10:09:46;5.50;;;1.57;;
9496;SDS011;4786;51.270;4.456;2024-03-02T10:12:14;5.63;;;1.70;;
9496;SDS011;4786;51.270;4.456;2024-03-02T10:14:42;4.20;;;1.57;;
9496;SDS011;4786;51.270;4.456;2024-03-02T10:17:09;7.17;;;1.77;;
9496;SDS011;4786;51.270;4.456;2024-03-02T10:19:39;8.23;;;2.03;;
9496;SDS011;4786;51.270;4.456;2024-03-02T10:22:06;5.47;;;1.90;;
9496;SDS011;4786;51.270;4.456;2024-03-02T10:24:43;5.37;;;2.07;;
9496;SDS011;4786;51.270;4.456;2024-03-02T10:27:22;5.93;;;1.80;;
9496;SDS011;4786;51.270;4.456;2024-03-02T10:29:51;8.37;;;1.97;;
9496;SDS011;4786;51.270;4.456;2024-03-02T10:32:18;7.13;;;1.70;;
9496;SDS011;4786;51.270;4.456;2024-03-02T10:34:47;7.07;;;2.07;;
9496;SDS011;4786;51.270;4.456;2024-03-02T10:37:13;7.73;;;2.00;;
9496;SDS011;4786;51.270;4.456;2024-03-02T10:39:40;5.57;;;2.13;;
9496;SDS011;4786;51.270;4.456;2024-03-02T10:42:06;6.03;;;1.97;;
9496;SDS011;4786;51.270;4.456;2024-03-02T10:44:33;4.83;;;1.80;;
9496;SDS011;4786;51.270;4.456;2024-03-02T10:47:00;6.17;;;1.70;;
9496;SDS011;4786;51.270;4.456;2024-03-02T10:49:30;6.57;;;1.87;;
9496;SDS011;4786;51.270;4.456;2024-03-02T10:51:58;9.20;;;2.50;;
9496;SDS011;4786;51.270;4.456;2024-03-02T10:54:24;6.83;;;2.07;;
9496;SDS011;4786;51.270;4.456;2024-03-02T10:57:00;6.73;;;2.00;;
9496;SDS011;4786;51.270;4.456;2024-03-02T11:02:01;4.43;;;1.70;;
9496;SDS011;4786;51.270;4.456;2024-03-02T11:04:33;6.67;;;1.83;;
9496;SDS011;4786;51.270;4.456;2024-03-02T11:07:02;6.27;;;2.00;;
9496;SDS011;4786;51.270;4.456;2024-03-02T11:09:37;4.57;;;1.70;;
9496;SDS011;4786;51.270;4.456;2024-03-02T11:12:13;4.33;;;1.70;;
9496;SDS011;4786;51.270;4.456;2024-03-02T11:14:45;4.63;;;1.57;;
9496;SDS011;4786;51.270;4.456;2024-03-02T11:17:11;5.43;;;1.70;;
9496;SDS011;4786;51.270;4.456;2024-03-02T11:19:40;6.63;;;1.93;;
9496;SDS011;4786;51.270;4.456;2024-03-02T11:22:06;7.63;;;1.90;;
9496;SDS011;4786;51.270;4.456;2024-03-02T11:24:33;5.57;;;1.90;;
9496;SDS011;4786;51.270;4.456;2024-03-02T11:27:00;6.17;;;1.73;;
9496;SDS011;4786;51.270;4.456;2024-03-02T11:32:02;10.37;;;2.10;;
9496;SDS011;4786;51.270;4.456;2024-03-02T11:34:30;6.97;;;2.00;;
9496;SDS011;4786;51.270;4.456;2024-03-02T11:36:57;5.13;;;1.60;;
9496;SDS011;4786;51.270;4.456;2024-03-02T11:39:24;6.07;;;1.80;;
9496;SDS011;4786;51.270;4.456;2024-03-02T11:41:51;3.83;;;1.47;;
9496;SDS011;4786;51.270;4.456;2024-03-02T11:44:17;4.50;;;1.90;;
9496;SDS011;4786;51.270;4.456;2024-03-02T11:47:05;5.53;;;1.83;;
9496;SDS011;4786;51.270;4.456;2024-03-02T11:49:38;4.90;;;1.67;;
9496;SDS011;4786;51.270;4.456;2024-03-02T11:52:08;6.30;;;2.00;;
9496;SDS011;4786;51.270;4.456;2024-03-02T11:54:40;4.47;;;1.70;;
9496;SDS011;4786;51.270;4.456;2024-03-02T11:57:12;7.10;;;2.00;;
9496;SDS011;4786;51.270;4.456;2024-03-02T11:59:42;8.17;;;1.97;;
9496;SDS011;4786;51.270;4.456;2024-03-02T12:02:18;3.43;;;1.70;;
9496;SDS011;4786;51.270;4.456;2024-03-02T12:04:46;5.67;;;1.90;;
9496;SDS011;4786;51.270;4.456;2024-03-02T12:07:20;4.87;;;1.90;;
9496;SDS011;4786;51.270;4.456;2024-03-02T12:09:47;3.77;;;1.50;;
9496;SDS011;4786;51.270;4.456;2024-03-02T12:12:13;5.27;;;1.73;;
9496;SDS011;4786;51.270;4.456;2024-03-02T12:14:52;5.00;;;1.80;;
9496;SDS011;4786;51.270;4.456;2024-03-02T12:17:20;5.70;;;1.60;;
9496;SDS011;4786;51.270;4.456;2024-03-02T12:19:47;5.23;;;1.90;;
9496;SDS011;4786;51.270;4.456;2024-03-02T12:22:13;3.60;;;1.70;;
9496;SDS011;4786;51.270;4.456;2024-03-02T12:24:40;4.43;;;2.17;;
9496;SDS011;4786;51.270;4.456;2024-03-02T12:27:07;6.63;;;1.97;;
9496;SDS011;4786;51.270;4.456;2024-03-02T12:29:33;6.90;;;2.17;;
9496;SDS011;4786;51.270;4.456;2024-03-02T12:32:00;4.60;;;1.80;;
9496;SDS011;4786;51.270;4.456;2024-03-02T12:34:27;3.17;;;1.40;;
9496;SDS011;4786;51.270;4.456;2024-03-02T12:36:53;5.27;;;1.80;;
9496;SDS011;4786;51.270;4.456;2024-03-02T12:39:19;3.00;;;1.47;;
9496;SDS011;4786;51.270;4.456;2024-03-02T12:41:46;3.83;;;1.43;;
9496;SDS011;4786;51.270;4.456;2024-03-02T12:44:12;6.87;;;1.40;;
9496;SDS011;4786;51.270;4.456;2024-03-02T12:46:38;6.67;;;1.93;;
9496;SDS011;4786;51.270;4.456;2024-03-02T12:49:07;4.10;;;1.60;;
9496;SDS011;4786;51.270;4.456;2024-03-02T12:51:35;6.70;;;1.80;;
9496;SDS011;4786;51.270;4.456;2024-03-02T12:54:02;7.47;;;1.73;;
9496;SDS011;4786;51.270;4.456;2024-03-02T12:56:28;3.47;;;1.63;;
9496;SDS011;4786;51.270;4.456;2024-03-02T12:58:55;3.13;;;1.80;;
9496;SDS011;4786;51.270;4.456;2024-03-02T13:01:20;4.10;;;1.93;;
9496;SDS011;4786;51.270;4.456;2024-03-02T13:03:49;6.33;;;2.00;;
9496;SDS011;4786;51.270;4.456;2024-03-02T13:06:18;5.47;;;2.03;;
9496;SDS011;4786;51.270;4.456;2024-03-02T13:08:51;5.10;;;1.90;;
9496;SDS011;4786;51.270;4.456;2024-03-02T13:11:17;4.33;;;2.00;;
9496;SDS011;4786;51.270;4.456;2024-03-02T13:13:43;6.93;;;2.50;;
9496;SDS011;4786;51.270;4.456;2024-03-02T13:16:10;4.23;;;1.73;;
9496;SDS011;4786;51.270;4.456;2024-03-02T13:18:38;3.53;;;1.80;;
9496;SDS011;4786;51.270;4.456;2024-03-02T13:21:04;3.37;;;1.60;;
9496;SDS011;4786;51.270;4.456;2024-03-02T13:23:30;4.07;;;1.90;;
9496;SDS011;4786;51.270;4.456;2024-03-02T13:25:56;4.30;;;1.60;;
9496;SDS011;4786;51.270;4.456;2024-03-02T13:28:25;3.37;;;1.53;;
9496;SDS011;4786;51.270;4.456;2024-03-02T13:30:57;4.27;;;1.83;;
9496;SDS011;4786;51.270;4.456;2024-03-02T13:33:23;3.20;;;1.40;;
9496;SDS011;4786;51.270;4.456;2024-03-02T13:35:49;5.00;;;2.23;;
9496;SDS011;4786;51.270;4.456;2024-03-02T13:38:16;4.67;;;1.80;;
9496;SDS011;4786;51.270;4.456;2024-03-02T13:40:45;5.53;;;1.80;;
9496;SDS011;4786;51.270;4.456;2024-03-02T13:43:13;5.97;;;1.73;;
9496;SDS011;4786;51.270;4.456;2024-03-02T13:45:40;12.27;;;8.80;;
9496;SDS011;4786;51.270;4.456;2024-03-02T13:48:06;6.73;;;2.20;;
9496;SDS011;4786;51.270;4.456;2024-03-02T13:50:33;5.40;;;1.90;;
9496;SDS011;4786;51.270;4.456;2024-03-02T13:52:59;12.53;;;8.90;;
9496;SDS011;4786;51.270;4.456;2024-03-02T13:55:25;6.23;;;4.10;;
9496;SDS011;4786;51.270;4.456;2024-03-02T13:57:51;6.23;;;3.30;;
9496;SDS011;4786;51.270;4.456;2024-03-02T14:00:17;9.10;;;2.80;;
9496;SDS011;4786;51.270;4.456;2024-03-02T14:02:43;12.53;;;8.47;;
9496;SDS011;4786;51.270;4.456;2024-03-02T14:05:11;12.03;;;7.90;;
9496;SDS011;4786;51.270;4.456;2024-03-02T14:07:37;6.93;;;3.73;;
9496;SDS011;4786;51.270;4.456;2024-03-02T14:10:04;8.07;;;5.73;;
9496;SDS011;4786;51.270;4.456;2024-03-02T14:12:29;10.80;;;5.27;;
9496;SDS011;4786;51.270;4.456;2024-03-02T14:14:55;9.13;;;6.53;;
9496;SDS011;4786;51.270;4.456;2024-03-02T14:17:23;16.77;;;8.10;;
9496;SDS011;4786;51.270;4.456;2024-03-02T14:19:50;9.53;;;4.03;;
9496;SDS011;4786;51.270;4.456;2024-03-02T14:22:18;6.50;;;3.40;;
9496;SDS011;4786;51.270;4.456;2024-03-02T14:24:45;6.67;;;3.03;;
9496;SDS011;4786;51.270;4.456;2024-03-02T14:27:11;11.53;;;6.67;;
9496;SDS011;4786;51.270;4.456;2024-03-02T14:29:37;9.70;;;6.90;;
9496;SDS011;4786;51.270;4.456;2024-03-02T14:32:05;11.77;;;4.70;;
9496;SDS011;4786;51.270;4.456;2024-03-02T14:34:31;5.73;;;2.10;;
9496;SDS011;4786;51.270;4.456;2024-03-02T14:36:57;8.37;;;4.00;;
9496;SDS011;4786;51.270;4.456;2024-03-02T14:39:22;4.57;;;2.40;;
9496;SDS011;4786;51.270;4.456;2024-03-02T14:41:49;3.13;;;1.53;;
9496;SDS011;4786;51.270;4.456;2024-03-02T14:44:14;6.27;;;3.10;;
9496;SDS011;4786;51.270;4.456;2024-03-02T14:46:40;3.57;;;2.00;;
9496;SDS011;4786;51.270;4.456;2024-03-02T14:49:07;5.83;;;2.27;;
9496;SDS011;4786;51.270;4.456;2024-03-02T14:51:33;4.50;;;1.83;;
9496;SDS011;4786;51.270;4.456;2024-03-02T14:53:58;7.60;;;3.80;;
9496;SDS011;4786;51.270;4.456;2024-03-02T14:56:24;11.90;;;8.13;;
9496;SDS011;4786;51.270;4.456;2024-03-02T14:58:50;12.07;;;8.90;;
9496;SDS011;4786;51.270;4.456;2024-03-02T15:01:16;7.37;;;2.57;;
9496;SDS011;4786;51.270;4.456;2024-03-02T15:03:42;6.67;;;3.87;;
9496;SDS011;4786;51.270;4.456;2024-03-02T15:06:09;9.90;;;8.13;;
9496;SDS011;4786;51.270;4.456;2024-03-02T15:08:35;10.77;;;6.17;;
9496;SDS011;4786;51.270;4.456;2024-03-02T15:11:01;7.00;;;4.10;;
9496;SDS011;4786;51.270;4.456;2024-03-02T15:13:28;4.77;;;2.97;;
9496;SDS011;4786;51.270;4.456;2024-03-02T15:15:54;7.43;;;3.37;;
9496;SDS011;4786;51.270;4.456;2024-03-02T15:18:20;3.73;;;2.47;;
9496;SDS011;4786;51.270;4.456;2024-03-02T15:20:46;5.43;;;3.50;;